Time;durP1;ratioP1;P1;durP2;ratioP2;P2;SDS_P1;SDS_P2;PMS_P1;PMS_P2;Temp;Humidity;BMP_temperature;BMP_pressure;BME280_temperature;BME280_humidity;BME280_pressure;Samples;Min_cycle;Max_cycle;Signal;HPM_P1;HPM_P2
2020/12/31 00:01:25;;;;;;;15.93;9.60;;;;;;;;;;5063120;28;20021;-73
2020/12/31 00:03:51;;;;;;;17.70;9.82;;;;;;;;;;5061427;28;20804;-73
2020/12/31 00:06:17;;;;;;;14.60;8.80;;;;;;;;;;5063738;28;20028;-73
2020/12/31 00:08:43;;;;;;;15.65;7.80;;;;;;;;;;5061077;28;20021;-73
2020/12/31 00:11:09;;;;;;;14.05;8.50;;;;;;;;;;5062507;28;20023;-73
2020/12/31 00:13:36;;;;;;;17.15;8.85;;;;;;;;;;5058472;28;20052;-73
2020/12/31 00:16:02;;;;;;;17.70;8.52;;;;;;;;;;5052466;28;20449;-72
2020/12/31 00:18:28;;;;;;;15.02;8.15;;;;;;;;;;5053362;28;20547;-73
2020/12/31 00:20:54;;;;;;;13.85;8.27;;;;;;;;;;5054134;28;20044;-72
2020/12/31 00:23:20;;;;;;;11.70;7.00;;;;;;;;;;5052659;28;20100;-72
2020/12/31 00:25:48;;;;;;;14.75;8.38;;;;;;;;;;5054253;28;20036;-72
2020/12/31 00:28:14;;;;;;;11.48;6.30;;;;;;;;;;5052858;28;20021;-72
2020/12/31 00:30:40;;;;;;;13.52;7.78;;;;;;;;;;5054133;28;20034;-72
2020/12/31 00:33:06;;;;;;;12.98;7.28;;;;;;;;;;5053986;28;20037;-72
2020/12/31 00:35:33;;;;;;;14.10;6.63;;;;;;;;;;5052291;28;20045;-72
2020/12/31 00:37:59;;;;;;;12.55;7.68;;;;;;;;;;5053710;28;20013;-72
2020/12/31 00:40:25;;;;;;;13.45;7.38;;;;;;;;;;5053638;28;20021;-72
2020/12/31 00:42:50;;;;;;;15.73;7.35;;;;;;;;;;5052549;28;20351;-72
2020/12/31 00:45:16;;;;;;;12.05;7.82;;;;;;;;;;5052206;28;20057;-72
2020/12/31 00:47:42;;;;;;;14.15;7.60;;;;;;;;;;5052138;28;20021;-72
2020/12/31 00:50:09;;;;;;;12.23;7.93;;;;;;;;;;5053577;28;20113;-72
2020/12/31 00:52:34;;;;;;;12.05;7.55;;;;;;;;;;5053470;28;20534;-72
2020/12/31 00:55:01;;;;;;;13.80;7.15;;;;;;;;;;5053546;28;20041;-72
2020/12/31 00:57:27;;;;;;;12.80;7.63;;;;;;;;;;5052034;28;20496;-73
2020/12/31 00:59:53;;;;;;;9.75;6.18;;;;;;;;;;5053282;28;20021;-72
2020/12/31 01:02:19;;;;;;;12.77;8.35;;;;;;;;;;5053359;28;20013;-72
2020/12/31 01:04:45;;;;;;;13.93;6.85;;;;;;;;;;5052127;28;20028;-72
2020/12/31 01:07:15;;;;;;;14.60;8.20;;;;;;;;;;5053104;28;20100;-72
2020/12/31 01:09:41;;;;;;;12.23;7.18;;;;;;;;;;5053368;28;20062;-72
2020/12/31 01:12:07;;;;;;;10.93;6.90;;;;;;;;;;5053220;28;20063;-73
2020/12/31 01:14:33;;;;;;;12.15;7.72;;;;;;;;;;5052866;28;20020;-73
2020/12/31 01:16:59;;;;;;;11.77;7.03;;;;;;;;;;5051888;28;20024;-73
2020/12/31 01:19:25;;;;;;;11.75;6.95;;;;;;;;;;5052930;28;20067;-72
2020/12/31 01:21:51;;;;;;;11.75;6.50;;;;;;;;;;5052953;28;20018;-73
2020/12/31 01:24:17;;;;;;;11.23;5.90;;;;;;;;;;5050832;28;20025;-73
2020/12/31 01:26:43;;;;;;;13.35;6.80;;;;;;;;;;5051646;28;20028;-73
2020/12/31 01:29:09;;;;;;;9.75;5.72;;;;;;;;;;5052994;28;20456;-73
2020/12/31 01:31:35;;;;;;;12.13;7.88;;;;;;;;;;5052538;28;20076;-73
2020/12/31 01:34:01;;;;;;;12.90;7.90;;;;;;;;;;5053229;28;20151;-73
2020/12/31 01:36:27;;;;;;;11.63;7.35;;;;;;;;;;5052505;28;20047;-73
2020/12/31 01:38:53;;;;;;;11.38;6.85;;;;;;;;;;5051547;28;20017;-74
2020/12/31 01:41:23;;;;;;;14.25;7.70;;;;;;;;;;5052313;28;20013;-73
2020/12/31 01:44:09;;;;;;;13.50;8.05;;;;;;;;;;5052766;28;20013;-73
2020/12/31 01:46:36;;;;;;;13.90;8.27;;;;;;;;;;5051132;28;20477;-73
2020/12/31 01:49:03;;;;;;;14.45;7.78;;;;;;;;;;5051438;28;20064;-73
2020/12/31 01:51:30;;;;;;;12.55;8.60;;;;;;;;;;5052288;28;20013;-73
2020/12/31 01:53:56;;;;;;;16.48;8.73;;;;;;;;;;5051297;28;20051;-73
2020/12/31 01:56:28;;;;;;;13.95;8.80;;;;;;;;;;5050938;28;20607;-73
2020/12/31 01:58:54;;;;;;;12.73;7.85;;;;;;;;;;5052475;28;20017;-73
2020/12/31 02:01:21;;;;;;;11.63;8.05;;;;;;;;;;5052072;28;20020;-73
2020/12/31 02:03:47;;;;;;;13.48;8.38;;;;;;;;;;5051991;28;20021;-73
2020/12/31 02:06:13;;;;;;;10.98;7.75;;;;;;;;;;5052575;28;20392;-73
2020/12/31 02:08:39;;;;;;;13.90;8.30;;;;;;;;;;5052179;28;20092;-73
2020/12/31 02:11:06;;;;;;;13.10;8.73;;;;;;;;;;5052190;28;20044;-73
2020/12/31 02:13:33;;;;;;;15.27;8.82;;;;;;;;;;5051998;28;20017;-73
2020/12/31 02:15:59;;;;;;;16.00;8.73;;;;;;;;;;5050917;28;20437;-73
2020/12/31 02:18:25;;;;;;;16.63;11.20;;;;;;;;;;5050624;28;20370;-73
2020/12/31 02:20:51;;;;;;;18.42;12.70;;;;;;;;;;5052248;28;20013;-73
2020/12/31 02:23:17;;;;;;;17.52;12.18;;;;;;;;;;5050914;28;20029;-74
2020/12/31 02:25:43;;;;;;;20.08;12.23;;;;;;;;;;5050605;28;20373;-73
2020/12/31 02:28:09;;;;;;;19.60;12.27;;;;;;;;;;5052061;28;20024;-73
2020/12/31 02:30:35;;;;;;;21.48;13.90;;;;;;;;;;5051893;28;20021;-72
2020/12/31 02:33:01;;;;;;;20.27;13.85;;;;;;;;;;5050701;28;20048;-72
2020/12/31 02:35:27;;;;;;;22.17;14.35;;;;;;;;;;5051672;28;20358;-72
2020/12/31 02:37:53;;;;;;;20.23;13.57;;;;;;;;;;5052313;28;20097;-72
2020/12/31 02:40:19;;;;;;;20.42;13.85;;;;;;;;;;5050590;28;20013;-74
2020/12/31 02:42:45;;;;;;;19.90;13.23;;;;;;;;;;5050495;28;20466;-72
2020/12/31 02:45:11;;;;;;;18.48;11.88;;;;;;;;;;5051976;28;20469;-72
2020/12/31 02:47:40;;;;;;;19.30;13.43;;;;;;;;;;5051922;28;20017;-72
2020/12/31 02:50:06;;;;;;;20.38;13.80;;;;;;;;;;5051936;28;20025;-72
2020/12/31 02:52:32;;;;;;;19.75;14.20;;;;;;;;;;5051670;28;20449;-72
2020/12/31 02:54:58;;;;;;;19.27;13.05;;;;;;;;;;5052077;28;20025;-72
2020/12/31 02:57:24;;;;;;;19.67;13.32;;;;;;;;;;5050352;28;20017;-72
2020/12/31 02:59:50;;;;;;;17.13;12.05;;;;;;;;;;5050585;28;20021;-72
2020/12/31 03:02:16;;;;;;;18.83;13.45;;;;;;;;;;5050659;28;20457;-72
2020/12/31 03:04:42;;;;;;;19.88;13.63;;;;;;;;;;5051883;28;20048;-72
2020/12/31 03:07:08;;;;;;;21.20;14.65;;;;;;;;;;5052067;28;20322;-72
2020/12/31 03:09:34;;;;;;;18.92;13.45;;;;;;;;;;5051629;28;20021;-72
2020/12/31 03:12:00;;;;;;;21.52;14.80;;;;;;;;;;5050455;28;20079;-72
2020/12/31 03:14:26;;;;;;;18.05;12.55;;;;;;;;;;5052141;28;20453;-72
2020/12/31 03:16:52;;;;;;;17.33;13.15;;;;;;;;;;5055452;28;20037;-72
2020/12/31 03:19:18;;;;;;;17.63;12.32;;;;;;;;;;5055477;28;20366;-72
2020/12/31 03:21:44;;;;;;;18.63;12.25;;;;;;;;;;5055216;28;20025;-72
2020/12/31 03:24:10;;;;;;;18.63;12.55;;;;;;;;;;5055583;28;20013;-72
2020/12/31 03:26:36;;;;;;;16.05;11.73;;;;;;;;;;5055381;28;20029;-72
2020/12/31 03:29:02;;;;;;;15.70;11.85;;;;;;;;;;5055026;28;20017;-73
2020/12/31 03:31:28;;;;;;;17.40;10.93;;;;;;;;;;5054856;28;20540;-73
2020/12/31 03:33:54;;;;;;;15.88;11.80;;;;;;;;;;5055422;28;20071;-73
2020/12/31 03:36:19;;;;;;;16.80;10.02;;;;;;;;;;5053752;28;20029;-73
2020/12/31 03:38:45;;;;;;;15.60;10.27;;;;;;;;;;5055200;28;20461;-73
2020/12/31 03:41:11;;;;;;;16.20;11.38;;;;;;;;;;5055100;28;20103;-73
2020/12/31 03:43:37;;;;;;;15.32;10.07;;;;;;;;;;5053467;28;20368;-73
2020/12/31 03:46:03;;;;;;;14.13;9.73;;;;;;;;;;5053674;28;20029;-72
2020/12/31 03:48:29;;;;;;;12.88;9.23;;;;;;;;;;5054658;28;20087;-72
2020/12/31 03:50:55;;;;;;;13.55;9.70;;;;;;;;;;5053526;28;20025;-72
2020/12/31 03:53:21;;;;;;;11.50;8.25;;;;;;;;;;5053490;28;20025;-73
2020/12/31 03:55:47;;;;;;;14.63;8.52;;;;;;;;;;5054462;28;20060;-73
2020/12/31 03:58:13;;;;;;;11.65;8.18;;;;;;;;;;5053393;28;20488;-73
2020/12/31 04:00:39;;;;;;;10.38;7.32;;;;;;;;;;5054534;28;20025;-74
2020/12/31 04:03:05;;;;;;;13.90;9.05;;;;;;;;;;5053462;28;20199;-73
2020/12/31 04:05:31;;;;;;;12.32;7.65;;;;;;;;;;5054559;28;20104;-73
2020/12/31 04:07:57;;;;;;;12.82;8.35;;;;;;;;;;5054534;28;20029;-73
2020/12/31 04:10:23;;;;;;;12.85;8.68;;;;;;;;;;5054467;28;20445;-73
2020/12/31 04:12:49;;;;;;;9.70;7.20;;;;;;;;;;5054385;28;20021;-74
2020/12/31 04:15:15;;;;;;;11.98;8.23;;;;;;;;;;5053969;28;20024;-71
2020/12/31 04:17:41;;;;;;;11.15;7.60;;;;;;;;;;5052754;28;20016;-72
2020/12/31 04:20:07;;;;;;;10.90;6.68;;;;;;;;;;5052962;28;20515;-72
2020/12/31 04:22:33;;;;;;;10.07;6.82;;;;;;;;;;5053981;28;20034;-72
2020/12/31 04:25:00;;;;;;;8.68;6.55;;;;;;;;;;5052544;28;20021;-72
2020/12/31 04:27:26;;;;;;;15.95;9.32;;;;;;;;;;5052473;28;20017;-72
2020/12/31 04:29:52;;;;;;;10.40;7.00;;;;;;;;;;5054175;28;20020;-72
2020/12/31 04:32:18;;;;;;;12.25;7.68;;;;;;;;;;5052565;28;20045;-72
2020/12/31 04:34:44;;;;;;;15.50;8.63;;;;;;;;;;5053724;28;20016;-73
2020/12/31 04:37:10;;;;;;;12.02;6.93;;;;;;;;;;5053851;28;20353;-72
2020/12/31 04:39:36;;;;;;;13.75;7.32;;;;;;;;;;5053750;28;20081;-74
2020/12/31 04:42:02;;;;;;;10.85;6.68;;;;;;;;;;5052631;28;20021;-73
2020/12/31 04:44:29;;;;;;;12.05;7.13;;;;;;;;;;5052384;28;20075;-73
2020/12/31 04:46:56;;;;;;;9.93;6.38;;;;;;;;;;5053822;28;20025;-73
2020/12/31 04:49:29;;;;;;;14.40;8.73;;;;;;;;;;5053762;28;20040;-73
2020/12/31 04:51:56;;;;;;;12.00;7.35;;;;;;;;;;5052427;28;20408;-73
2020/12/31 04:54:22;;;;;;;11.55;6.53;;;;;;;;;;5052371;28;20111;-72
2020/12/31 04:56:48;;;;;;;9.43;6.32;;;;;;;;;;5051987;28;20036;-72
2020/12/31 04:59:14;;;;;;;15.68;9.32;;;;;;;;;;5052277;28;20044;-72
2020/12/31 05:01:46;;;;;;;10.13;6.40;;;;;;;;;;5051974;28;20043;-72
2020/12/31 05:04:13;;;;;;;12.30;6.63;;;;;;;;;;5053231;28;20563;-72
2020/12/31 05:06:40;;;;;;;13.30;6.72;;;;;;;;;;5052924;28;20021;-72
2020/12/31 05:09:16;;;;;;;9.90;6.50;;;;;;;;;;5053389;28;20331;-72
2020/12/31 05:11:45;;;;;;;10.85;7.28;;;;;;;;;;5052821;28;20527;-73
2020/12/31 05:14:11;;;;;;;10.45;6.45;;;;;;;;;;5053279;28;20104;-73
2020/12/31 05:16:37;;;;;;;11.80;6.25;;;;;;;;;;5052967;28;20025;-73
2020/12/31 05:19:19;;;;;;;10.50;6.10;;;;;;;;;;5053163;28;20076;-73
2020/12/31 05:21:45;;;;;;;12.13;8.13;;;;;;;;;;5051623;28;20439;-72
2020/12/31 05:24:13;;;;;;;11.10;6.45;;;;;;;;;;5053113;28;20017;-73
2020/12/31 05:26:39;;;;;;;12.73;7.18;;;;;;;;;;5051477;28;20025;-73
2020/12/31 05:29:06;;;;;;;9.85;6.40;;;;;;;;;;5052957;28;20028;-72
2020/12/31 05:31:51;;;;;;;12.13;6.97;;;;;;;;;;5052567;28;20052;-73
2020/12/31 05:34:30;;;;;;;11.30;6.57;;;;;;;;;;5051584;28;20116;-73
2020/12/31 05:37:13;;;;;;;9.20;6.40;;;;;;;;;;5050919;28;20625;-74
2020/12/31 05:39:54;;;;;;;10.85;6.47;;;;;;;;;;5052988;28;20377;-74
2020/12/31 05:42:20;;;;;;;12.70;6.88;;;;;;;;;;5051293;28;20048;-73
2020/12/31 05:44:59;;;;;;;8.68;5.90;;;;;;;;;;5051403;28;20021;-73
2020/12/31 05:47:25;;;;;;;12.00;6.28;;;;;;;;;;5052737;28;20024;-73
2020/12/31 05:49:52;;;;;;;10.88;5.53;;;;;;;;;;5052536;28;20391;-73
2020/12/31 05:52:33;;;;;;;8.90;5.57;;;;;;;;;;5052973;28;20017;-73
2020/12/31 05:55:01;;;;;;;9.48;5.30;;;;;;;;;;5052515;28;20021;-73
2020/12/31 05:57:40;;;;;;;10.00;6.72;;;;;;;;;;5052258;28;20400;-73
2020/12/31 06:00:07;;;;;;;7.82;5.13;;;;;;;;;;5052595;28;20029;-73
2020/12/31 06:02:37;;;;;;;10.32;5.60;;;;;;;;;;5052298;28;20017;-73
2020/12/31 06:05:09;;;;;;;9.35;5.55;;;;;;;;;;5051158;28;20025;-73
2020/12/31 06:07:40;;;;;;;7.90;5.38;;;;;;;;;;5050900;28;20036;-74
2020/12/31 06:10:07;;;;;;;8.65;5.50;;;;;;;;;;5052443;28;20088;-73
2020/12/31 06:12:43;;;;;;;8.65;4.72;;;;;;;;;;5052231;28;20013;-73
2020/12/31 06:15:09;;;;;;;10.77;6.05;;;;;;;;;;5052341;28;20031;-73
2020/12/31 06:17:44;;;;;;;7.63;4.50;;;;;;;;;;5052101;28;20017;-73
2020/12/31 06:20:12;;;;;;;8.57;5.38;;;;;;;;;;5051003;28;20074;-73
2020/12/31 06:22:55;;;;;;;9.05;4.82;;;;;;;;;;5052157;28;20055;-72
2020/12/31 06:25:41;;;;;;;9.82;5.45;;;;;;;;;;5051050;28;20111;-73
2020/12/31 06:28:11;;;;;;;11.27;5.53;;;;;;;;;;5051937;28;20369;-73
2020/12/31 06:30:38;;;;;;;8.35;5.13;;;;;;;;;;5050455;28;20074;-73
2020/12/31 06:33:27;;;;;;;7.32;4.50;;;;;;;;;;5050698;28;20041;-73
2020/12/31 06:35:54;;;;;;;6.90;4.18;;;;;;;;;;5049705;28;20040;-73
2020/12/31 06:38:27;;;;;;;8.18;4.50;;;;;;;;;;5050851;28;20575;-73
2020/12/31 06:40:54;;;;;;;8.57;4.97;;;;;;;;;;5050322;28;20079;-73
2020/12/31 06:43:29;;;;;;;9.55;5.35;;;;;;;;;;5052393;28;20049;-73
2020/12/31 06:45:55;;;;;;;9.75;5.10;;;;;;;;;;5050474;28;20032;-73
2020/12/31 06:48:27;;;;;;;7.05;5.25;;;;;;;;;;5052336;28;20017;-73
2020/12/31 06:51:05;;;;;;;9.70;4.50;;;;;;;;;;5054545;28;20031;-73
2020/12/31 06:53:31;;;;;;;7.82;4.80;;;;;;;;;;5056016;28;20021;-73
2020/12/31 06:55:58;;;;;;;7.60;4.72;;;;;;;;;;5054380;28;20029;-73
2020/12/31 06:58:24;;;;;;;8.80;4.72;;;;;;;;;;5054666;28;20117;-72
2020/12/31 07:00:51;;;;;;;10.85;5.32;;;;;;;;;;5054318;28;20025;-73
2020/12/31 07:03:37;;;;;;;9.38;5.43;;;;;;;;;;5055885;28;20025;-73
2020/12/31 07:06:22;;;;;;;10.23;5.05;;;;;;;;;;5055944;28;20108;-73
2020/12/31 07:08:51;;;;;;;10.07;5.78;;;;;;;;;;5054235;28;20028;-73
2020/12/31 07:11:36;;;;;;;10.07;5.67;;;;;;;;;;5055406;28;20031;-73
2020/12/31 07:14:11;;;;;;;6.68;4.57;;;;;;;;;;5055690;28;20084;-73
2020/12/31 07:16:41;;;;;;;9.60;5.47;;;;;;;;;;5055322;28;20029;-73
2020/12/31 07:19:07;;;;;;;;;;;;;;;;;;5054660;28;20028;-73
2020/12/31 07:21:36;;;;;;;10.10;4.93;;;;;;;;;;5055391;28;19900;-73
2020/12/31 07:24:22;;;;;;;8.10;4.75;;;;;;;;;;5055125;28;20388;-73
2020/12/31 07:26:55;;;;;;;12.25;4.85;;;;;;;;;;5055237;28;20021;-72
2020/12/31 07:29:25;;;;;;;9.77;5.53;;;;;;;;;;5055302;28;20017;-73
2020/12/31 07:31:51;;;;;;;11.07;5.60;;;;;;;;;;5063061;28;20043;-72
2020/12/31 07:34:30;;;;;;;9.00;5.03;;;;;;;;;;5063349;28;20052;-72
2020/12/31 07:37:06;;;;;;;7.80;4.53;;;;;;;;;;5062570;28;20040;-72
2020/12/31 07:39:34;;;;;;;7.68;4.57;;;;;;;;;;5062874;28;20024;-72
2020/12/31 07:42:09;;;;;;;11.30;5.10;;;;;;;;;;5058046;28;20036;-72
2020/12/31 07:44:35;;;;;;;8.02;4.20;;;;;;;;;;5063610;28;20008;-73
2020/12/31 07:47:01;;;;;;;8.50;4.30;;;;;;;;;;5061736;28;20021;-73
2020/12/31 07:49:27;;;;;;;7.47;4.28;;;;;;;;;;5063546;28;20020;-74
2020/12/31 07:52:00;;;;;;;7.65;3.22;;;;;;;;;;5064503;28;20457;-73
2020/12/31 07:54:26;;;;;;;6.93;3.40;;;;;;;;;;5060778;28;20061;-74
2020/12/31 07:56:52;;;;;;;8.15;3.40;;;;;;;;;;5064139;28;20032;-74
2020/12/31 07:59:19;;;;;;;7.85;4.35;;;;;;;;;;5063177;28;20020;-74
2020/12/31 08:01:45;;;;;;;6.63;2.92;;;;;;;;;;5060530;28;20067;-72
2020/12/31 08:04:11;;;;;;;7.70;3.40;;;;;;;;;;5063006;28;20021;-73
2020/12/31 08:06:37;;;;;;;8.60;2.75;;;;;;;;;;5064282;28;20051;-73
2020/12/31 08:09:04;;;;;;;7.10;3.17;;;;;;;;;;5063549;28;20047;-72
2020/12/31 08:11:30;;;;;;;5.60;3.00;;;;;;;;;;5062671;28;20059;-72
2020/12/31 08:14:05;;;;;;;7.13;3.17;;;;;;;;;;5063478;28;20026;-74
2020/12/31 08:16:31;;;;;;;9.93;3.70;;;;;;;;;;5072409;28;20024;-74
2020/12/31 08:18:57;;;;;;;9.07;4.80;;;;;;;;;;5072992;28;20052;-73
2020/12/31 08:21:23;;;;;;;6.80;3.88;;;;;;;;;;5074019;28;20017;-73
2020/12/31 08:23:57;;;;;;;7.13;3.80;;;;;;;;;;5074086;28;20025;-74
2020/12/31 08:26:24;;;;;;;6.93;3.95;;;;;;;;;;5072895;28;20020;-72
2020/12/31 08:28:50;;;;;;;9.80;3.38;;;;;;;;;;5072609;28;20020;-73
2020/12/31 08:31:16;;;;;;;6.97;4.13;;;;;;;;;;5073644;28;20385;-72
2020/12/31 08:33:49;;;;;;;6.03;3.35;;;;;;;;;;5073938;28;20024;-72
2020/12/31 08:36:24;;;;;;;5.35;2.67;;;;;;;;;;5073864;28;20112;-72
2020/12/31 08:38:50;;;;;;;8.77;3.00;;;;;;;;;;5060886;28;20013;-73
2020/12/31 08:41:19;;;;;;;6.43;2.95;;;;;;;;;;5061628;28;20009;-73
2020/12/31 08:43:45;;;;;;;6.93;3.47;;;;;;;;;;5052376;28;20372;-73
2020/12/31 08:46:18;;;;;;;7.68;3.35;;;;;;;;;;5054057;28;20021;-73
2020/12/31 08:48:51;;;;;;;5.90;3.15;;;;;;;;;;5052335;28;20118;-73
2020/12/31 08:51:17;;;;;;;7.18;3.20;;;;;;;;;;5052463;28;20476;-72
2020/12/31 08:53:53;;;;;;;14.45;3.90;;;;;;;;;;5053271;28;20025;-71
2020/12/31 08:56:20;;;;;;;6.60;3.17;;;;;;;;;;5053302;28;20091;-73
2020/12/31 08:58:46;;;;;;;7.47;3.13;;;;;;;;;;5053058;28;20029;-71
2020/12/31 09:01:24;;;;;;;9.13;3.08;;;;;;;;;;5053569;28;20446;-71
2020/12/31 09:03:50;;;;;;;7.30;3.63;;;;;;;;;;5051945;28;20028;-72
2020/12/31 09:06:25;;;;;;;7.43;3.70;;;;;;;;;;5053151;28;20366;-72
2020/12/31 09:08:52;;;;;;;6.57;3.92;;;;;;;;;;5051784;28;20032;-73
2020/12/31 09:11:24;;;;;;;7.55;3.50;;;;;;;;;;5053186;28;20017;-72
2020/12/31 09:13:50;;;;;;;8.77;4.55;;;;;;;;;;5051665;28;20021;-72
2020/12/31 09:16:16;;;;;;;9.27;4.40;;;;;;;;;;5053212;28;20028;-72
2020/12/31 09:18:43;;;;;;;6.65;3.95;;;;;;;;;;5052664;28;20025;-73
2020/12/31 09:21:10;;;;;;;6.35;3.47;;;;;;;;;;5053127;28;20445;-74
2020/12/31 09:23:36;;;;;;;7.40;3.85;;;;;;;;;;5053090;28;20020;-74
2020/12/31 09:26:02;;;;;;;5.47;3.33;;;;;;;;;;5052814;28;20021;-74
2020/12/31 09:28:29;;;;;;;9.25;4.43;;;;;;;;;;5052891;28;20128;-73
2020/12/31 09:30:56;;;;;;;7.97;3.78;;;;;;;;;;5052220;28;20357;-74
2020/12/31 09:33:24;;;;;;;7.22;3.60;;;;;;;;;;5052943;28;20103;-73
2020/12/31 09:35:50;;;;;;;7.38;3.90;;;;;;;;;;5052415;28;20087;-73
2020/12/31 09:38:17;;;;;;;7.63;4.70;;;;;;;;;;5052831;28;20017;-73
2020/12/31 09:40:43;;;;;;;6.97;3.65;;;;;;;;;;5052535;28;20013;-73
2020/12/31 09:43:10;;;;;;;6.65;3.97;;;;;;;;;;5051562;28;20021;-73
2020/12/31 09:45:38;;;;;;;7.20;3.72;;;;;;;;;;5052625;28;20027;-73
2020/12/31 09:48:04;;;;;;;6.45;3.45;;;;;;;;;;5051190;28;20021;-73
2020/12/31 09:50:30;;;;;;;7.20;3.92;;;;;;;;;;5051376;28;20524;-73
2020/12/31 09:52:57;;;;;;;8.93;4.03;;;;;;;;;;5052716;28;20025;-73
2020/12/31 09:55:23;;;;;;;8.45;5.07;;;;;;;;;;5052530;28;20052;-73
2020/12/31 09:57:49;;;;;;;7.50;4.13;;;;;;;;;;5051023;28;20028;-73
2020/12/31 10:00:15;;;;;;;7.10;4.53;;;;;;;;;;5052482;28;20025;-73
2020/12/31 10:02:41;;;;;;;6.88;4.80;;;;;;;;;;5052408;28;20025;-73
2020/12/31 10:05:07;;;;;;;7.20;5.03;;;;;;;;;;5052610;28;20021;-73
2020/12/31 10:07:33;;;;;;;9.85;5.30;;;;;;;;;;5052465;28;20017;-74
2020/12/31 10:10:00;;;;;;;8.63;5.18;;;;;;;;;;5052205;28;20017;-73
2020/12/31 10:12:26;;;;;;;11.65;5.22;;;;;;;;;;5052160;28;20024;-73
2020/12/31 10:14:52;;;;;;;8.23;4.47;;;;;;;;;;5052389;28;20458;-73
2020/12/31 10:17:18;;;;;;;13.02;7.03;;;;;;;;;;5051067;28;20075;-74
2020/12/31 10:19:44;;;;;;;7.90;5.10;;;;;;;;;;5050781;28;20052;-73
2020/12/31 10:22:10;;;;;;;9.80;6.22;;;;;;;;;;5051968;28;20412;-73
2020/12/31 10:24:36;;;;;;;9.18;5.68;;;;;;;;;;5050470;28;20028;-74
2020/12/31 10:27:03;;;;;;;6.40;4.57;;;;;;;;;;5050689;28;20021;-73
2020/12/31 10:29:29;;;;;;;7.45;4.25;;;;;;;;;;5050937;28;20099;-73
2020/12/31 10:31:55;;;;;;;9.32;5.03;;;;;;;;;;5050299;28;20041;-73
2020/12/31 10:34:25;;;;;;;6.93;4.50;;;;;;;;;;5052168;28;20017;-73
2020/12/31 10:36:51;;;;;;;6.40;3.60;;;;;;;;;;5051822;28;20544;-73
2020/12/31 10:39:17;;;;;;;6.00;3.97;;;;;;;;;;5051664;28;20028;-73
2020/12/31 10:41:43;;;;;;;7.07;4.30;;;;;;;;;;5051819;28;20347;-73
2020/12/31 10:44:09;;;;;;;7.05;4.35;;;;;;;;;;5050447;28;20037;-73
2020/12/31 10:46:35;;;;;;;7.10;4.18;;;;;;;;;;5051718;28;20047;-73
2020/12/31 10:49:01;;;;;;;6.70;3.75;;;;;;;;;;5050401;28;20445;-73
2020/12/31 10:51:27;;;;;;;6.82;4.13;;;;;;;;;;5052017;28;20151;-73
2020/12/31 10:53:53;;;;;;;8.82;4.82;;;;;;;;;;5051784;28;20013;-73
2020/12/31 10:56:20;;;;;;;6.35;4.22;;;;;;;;;;5051957;28;20025;-73
2020/12/31 10:58:46;;;;;;;6.88;4.57;;;;;;;;;;5051255;28;20029;-74
2020/12/31 11:01:14;;;;;;;7.45;5.22;;;;;;;;;;5050665;28;20021;-73
2020/12/31 11:03:40;;;;;;;7.78;5.13;;;;;;;;;;5051779;28;20045;-73
2020/12/31 11:06:06;;;;;;;7.60;4.40;;;;;;;;;;5050245;28;20485;-73
2020/12/31 11:08:32;;;;;;;8.52;4.60;;;;;;;;;;5050589;28;20021;-73
2020/12/31 11:10:58;;;;;;;8.38;5.82;;;;;;;;;;5051843;28;20052;-73
2020/12/31 11:13:25;;;;;;;7.75;5.22;;;;;;;;;;5051808;28;20477;-73
2020/12/31 11:15:51;;;;;;;7.60;5.18;;;;;;;;;;5050271;28;20071;-74
2020/12/31 11:18:17;;;;;;;7.38;4.35;;;;;;;;;;5050355;28;20079;-73
2020/12/31 11:20:43;;;;;;;6.40;4.15;;;;;;;;;;5051768;28;20017;-73
2020/12/31 11:23:09;;;;;;;6.93;4.38;;;;;;;;;;5050180;28;20464;-73
2020/12/31 11:25:35;;;;;;;6.65;3.92;;;;;;;;;;5051453;28;20364;-73
2020/12/31 11:28:01;;;;;;;5.43;3.42;;;;;;;;;;5050084;28;20353;-73
2020/12/31 11:30:27;;;;;;;4.75;3.53;;;;;;;;;;5050404;28;20021;-73
2020/12/31 11:32:53;;;;;;;7.15;4.07;;;;;;;;;;5049996;28;20041;-73
2020/12/31 11:35:19;;;;;;;5.30;3.63;;;;;;;;;;5051665;28;20357;-73
2020/12/31 11:37:45;;;;;;;5.13;2.60;;;;;;;;;;5053985;28;20020;-74
2020/12/31 11:40:12;;;;;;;5.80;2.92;;;;;;;;;;5053341;28;20052;-74
2020/12/31 11:42:38;;;;;;;6.03;2.95;;;;;;;;;;5053848;28;20021;-74
2020/12/31 11:45:05;;;;;;;4.55;2.88;;;;;;;;;;5054624;28;20058;-74
2020/12/31 11:47:31;;;;;;;4.60;3.00;;;;;;;;;;5053671;28;20033;-74
2020/12/31 11:49:57;;;;;;;4.28;2.90;;;;;;;;;;5055081;28;20156;-74
2020/12/31 11:52:23;;;;;;;5.03;3.13;;;;;;;;;;5053458;28;20024;-75
2020/12/31 11:54:49;;;;;;;5.72;3.38;;;;;;;;;;5053132;28;20025;-75
2020/12/31 11:57:15;;;;;;;5.65;3.38;;;;;;;;;;5053436;28;20102;-75
2020/12/31 11:59:41;;;;;;;6.43;3.67;;;;;;;;;;5053435;28;20017;-73
2020/12/31 12:02:10;;;;;;;6.05;3.17;;;;;;;;;;5054525;28;20028;-73
2020/12/31 12:04:36;;;;;;;5.53;3.53;;;;;;;;;;5054683;28;20024;-73
2020/12/31 12:07:02;;;;;;;5.63;3.65;;;;;;;;;;5054344;28;20029;-72
2020/12/31 12:09:28;;;;;;;5.85;3.72;;;;;;;;;;5054919;28;20013;-73
2020/12/31 12:11:54;;;;;;;5.20;3.47;;;;;;;;;;5054304;28;20024;-74
2020/12/31 12:14:20;;;;;;;6.82;4.00;;;;;;;;;;5054421;28;20464;-73
2020/12/31 12:16:49;;;;;;;5.32;3.47;;;;;;;;;;5054452;28;20032;-73
2020/12/31 12:19:16;;;;;;;6.13;3.60;;;;;;;;;;5054526;28;20025;-73
2020/12/31 12:21:42;;;;;;;7.63;4.57;;;;;;;;;;5058460;28;20259;-73
2020/12/31 12:24:08;;;;;;;7.05;4.45;;;;;;;;;;5071889;28;20028;-74
2020/12/31 12:26:37;;;;;;;9.10;4.53;;;;;;;;;;5073522;28;20028;-74
2020/12/31 12:29:04;;;;;;;6.57;4.50;;;;;;;;;;5072386;28;20070;-74
2020/12/31 12:31:34;;;;;;;9.68;6.35;;;;;;;;;;5073864;28;20071;-74
2020/12/31 12:34:01;;;;;;;8.85;4.90;;;;;;;;;;5072444;28;20059;-73
2020/12/31 12:36:27;;;;;;;9.40;5.43;;;;;;;;;;5072613;28;20483;-73
2020/12/31 12:38:53;;;;;;;8.23;5.18;;;;;;;;;;5072559;28;20043;-73
2020/12/31 12:41:20;;;;;;;11.32;5.63;;;;;;;;;;5074076;28;20017;-74
2020/12/31 12:43:46;;;;;;;10.45;7.18;;;;;;;;;;5074109;28;20092;-73
2020/12/31 12:46:13;;;;;;;13.30;8.50;;;;;;;;;;5072006;28;20024;-74
2020/12/31 12:48:39;;;;;;;14.20;10.00;;;;;;;;;;5073884;28;20099;-74
2020/12/31 12:51:05;;;;;;;13.52;8.35;;;;;;;;;;5073355;28;20040;-74
2020/12/31 12:53:31;;;;;;;16.95;9.30;;;;;;;;;;5073708;28;20074;-74
2020/12/31 12:55:57;;;;;;;14.27;8.57;;;;;;;;;;5073137;28;20020;-74
2020/12/31 12:58:23;;;;;;;16.55;9.75;;;;;;;;;;5073402;28;20373;-74
2020/12/31 13:00:49;;;;;;;14.90;9.40;;;;;;;;;;5072310;28;20044;-74
2020/12/31 13:03:15;;;;;;;15.63;8.93;;;;;;;;;;5073614;28;20031;-74
2020/12/31 13:05:42;;;;;;;5.78;3.05;;;;;;;;;;5073733;28;20453;-74
2020/12/31 13:08:08;;;;;;;14.90;9.05;;;;;;;;;;5072935;28;20517;-74
2020/12/31 13:10:34;;;;;;;15.32;9.20;;;;;;;;;;5073672;28;20202;-74
2020/12/31 13:13:00;;;;;;;18.83;8.88;;;;;;;;;;5063263;28;20028;-74
2020/12/31 13:15:26;;;;;;;18.73;9.30;;;;;;;;;;5061805;28;20020;-74
2020/12/31 13:17:52;;;;;;;12.50;8.48;;;;;;;;;;5061578;28;20154;-74
2020/12/31 13:20:19;;;;;;;19.10;10.25;;;;;;;;;;5061440;28;20051;-74
2020/12/31 13:22:46;;;;;;;13.80;9.15;;;;;;;;;;5055252;28;20045;-74
2020/12/31 13:25:12;;;;;;;15.25;9.32;;;;;;;;;;5052599;28;20310;-74
2020/12/31 13:27:38;;;;;;;16.73;10.90;;;;;;;;;;5051827;28;20170;-74
2020/12/31 13:30:05;;;;;;;16.20;9.85;;;;;;;;;;5051626;28;20016;-74
2020/12/31 13:32:31;;;;;;;17.50;10.35;;;;;;;;;;5052567;28;20397;-74
2020/12/31 13:34:57;;;;;;;16.25;10.98;;;;;;;;;;5052845;28;20025;-75
2020/12/31 13:37:25;;;;;;;17.33;10.85;;;;;;;;;;5052806;28;20025;-75
2020/12/31 13:39:51;;;;;;;16.92;10.07;;;;;;;;;;5051649;28;20044;-74
2020/12/31 13:42:17;;;;;;;21.23;10.23;;;;;;;;;;5052706;28;20017;-73
2020/12/31 13:44:43;;;;;;;17.75;10.45;;;;;;;;;;5051657;28;20020;-73
2020/12/31 13:47:10;;;;;;;16.50;10.27;;;;;;;;;;5052655;28;20017;-73
2020/12/31 13:49:37;;;;;;;19.20;11.68;;;;;;;;;;5052834;28;20017;-72
2020/12/31 13:52:03;;;;;;;17.85;10.07;;;;;;;;;;5052528;28;20024;-73
2020/12/31 13:54:29;;;;;;;16.70;9.93;;;;;;;;;;5051456;28;20021;-73
2020/12/31 13:56:55;;;;;;;16.63;10.60;;;;;;;;;;5051166;28;20041;-73
2020/12/31 13:59:21;;;;;;;15.98;9.25;;;;;;;;;;5051867;28;20112;-73
2020/12/31 14:01:47;;;;;;;16.45;9.30;;;;;;;;;;5052648;28;20027;-72
2020/12/31 14:04:15;;;;;;;11.27;4.78;;;;;;;;;;5051955;28;20017;-72
2020/12/31 14:06:41;;;;;;;10.25;4.90;;;;;;;;;;5052495;28;20028;-72
2020/12/31 14:09:09;;;;;;;20.45;11.18;;;;;;;;;;5052301;28;20339;-72
2020/12/31 14:11:35;;;;;;;17.02;9.25;;;;;;;;;;5052463;28;20028;-72
2020/12/31 14:14:01;;;;;;;17.35;10.98;;;;;;;;;;5051821;28;20017;-72
2020/12/31 14:16:27;;;;;;;20.85;12.02;;;;;;;;;;5051126;28;20033;-72
2020/12/31 14:18:53;;;;;;;21.13;13.07;;;;;;;;;;5052620;28;20024;-73
2020/12/31 14:21:19;;;;;;;21.45;13.10;;;;;;;;;;5051772;28;20036;-73
2020/12/31 14:23:45;;;;;;;22.42;13.93;;;;;;;;;;5052326;28;20021;-72
2020/12/31 14:26:11;;;;;;;22.02;14.52;;;;;;;;;;5052309;28;20275;-73
2020/12/31 14:28:37;;;;;;;21.83;13.55;;;;;;;;;;5052270;28;20031;-72
2020/12/31 14:31:03;;;;;;;23.90;14.90;;;;;;;;;;5051870;28;20021;-72
2020/12/31 14:33:29;;;;;;;14.15;8.40;;;;;;;;;;5050963;28;20048;-72
2020/12/31 14:35:55;;;;;;;25.52;14.85;;;;;;;;;;5051958;28;20052;-73